Time;durP1;ratioP1;P1;durP2;ratioP2;P2;SDS_P1;SDS_P2;PMS_P1;PMS_P2;Temp;Humidity;BMP_temperature;BMP_pressure;BME280_temperature;BME280_humidity;BME280_pressure;Samples;Min_cycle;Max_cycle;Signal;HPM_P1;HPM_P2
2022/06/22 00:01:46;;;;;;;3.83;1.50;;;13.50;99.90;;;;;;5076940;28;20237;-37
2022/06/22 00:04:22;;;;;;;1.93;1.03;;;13.40;99.90;;;;;;5095860;28;20278;-39
2022/06/22 00:07:20;;;;;;;3.67;1.10;;;13.30;99.90;;;;;;5095014;28;20202;-37
2022/06/22 00:09:46;;;;;;;2.67;1.50;;;13.20;99.90;;;;;;5093800;28;20289;-37
2022/06/22 00:12:31;;;;;;;2.63;1.20;;;13.10;99.90;;;;;;5094742;28;20680;-39
2022/06/22 00:15:01;;;;;;;3.10;0.93;;;13.10;99.90;;;;;;5095314;28;20557;-40
2022/06/22 00:17:38;;;;;;;2.00;1.10;;;13.00;99.90;;;;;;5095029;28;20216;-38
2022/06/22 00:20:25;;;;;;;2.60;1.20;;;13.00;99.90;;;;;;5095615;28;20282;-38
2022/06/22 00:23:00;;;;;;;1.37;1.07;;;12.80;99.90;;;;;;5094707;28;20255;-39
2022/06/22 00:25:31;;;;;;;1.47;1.10;;;12.80;99.90;;;;;;5094698;28;20155;-38
2022/06/22 00:28:27;;;;;;;6.00;1.50;;;12.70;99.90;;;;;;5094428;28;20185;-38
2022/06/22 00:31:36;;;;;;;5.30;1.77;;;12.70;99.90;;;;;;5094520;28;20186;-38
2022/06/22 00:34:10;;;;;;;2.17;1.40;;;12.60;99.90;;;;;;5014688;28;20183;-38
2022/06/22 00:36:54;;;;;;;2.47;1.00;;;12.60;99.90;;;;;;5094368;28;20226;-38
2022/06/22 00:39:27;;;;;;;2.40;1.10;;;12.50;99.90;;;;;;5094548;28;20193;-39
2022/06/22 00:41:58;;;;;;;2.27;1.40;;;12.40;99.90;;;;;;5094221;28;20194;-40
2022/06/22 00:44:31;;;;;;;1.83;1.20;;;12.30;99.90;;;;;;5094532;28;20229;-40
2022/06/22 00:47:02;;;;;;;1.90;1.30;;;12.30;99.90;;;;;;5094286;28;20159;-38
2022/06/22 00:49:28;;;;;;;2.27;1.40;;;12.20;99.90;;;;;;5094391;28;20218;-39
2022/06/22 00:51:59;;;;;;;3.53;1.63;;;12.20;99.90;;;;;;5093543;28;20276;-38
2022/06/22 00:54:28;;;;;;;3.53;1.80;;;12.20;99.90;;;;;;5094364;28;20167;-38
2022/06/22 00:56:54;;;;;;;3.80;1.80;;;12.10;99.90;;;;;;5094278;28;20175;-38
2022/06/22 00:59:48;;;;;;;2.80;1.23;;;12.20;99.90;;;;;;5093925;28;20248;-37
2022/06/22 01:02:51;;;;;;;6.93;2.13;;;12.10;99.90;;;;;;5094273;28;20185;-38
2022/06/22 01:05:29;;;;;;;3.67;1.77;;;12.20;99.90;;;;;;5094206;28;20525;-38
2022/06/22 01:08:24;;;;;;;3.20;1.70;;;12.20;99.90;;;;;;5094094;28;20233;-40
2022/06/22 01:11:05;;;;;;;2.13;1.30;;;12.10;99.90;;;;;;5076533;28;20175;-39
2022/06/22 01:13:40;;;;;;;1.50;1.13;;;12.10;99.90;;;;;;5094362;28;20154;-38
2022/06/22 01:16:16;;;;;;;1.23;1.00;;;12.00;99.90;;;;;;5094609;28;20193;-39
2022/06/22 01:18:48;;;;;;;1.13;0.97;;;12.00;99.90;;;;;;5094054;28;20202;-38
2022/06/22 01:21:30;;;;;;;1.30;0.97;;;11.80;99.90;;;;;;5094078;28;20170;-38
2022/06/22 01:24:18;;;;;;;1.77;1.07;;;11.80;99.90;;;;;;5093770;28;20209;-38
2022/06/22 01:27:05;;;;;;;1.20;1.10;;;11.70;99.90;;;;;;5094023;28;20201;-37
2022/06/22 01:29:30;;;;;;;1.80;1.40;;;11.60;99.90;;;;;;5075616;28;20229;-38
2022/06/22 01:32:13;;;;;;;4.40;1.13;;;11.60;99.90;;;;;;5093934;28;20538;-37
2022/06/22 01:34:44;;;;;;;3.63;1.33;;;11.60;99.90;;;;;;5094079;28;20171;-37
2022/06/22 01:37:15;;;;;;;2.90;1.50;;;11.60;99.90;;;;;;5093571;28;20646;-38
2022/06/22 01:39:41;;;;;;;1.13;1.03;;;11.50;99.90;;;;;;5093556;28;20202;-38
2022/06/22 01:42:30;;;;;;;1.07;1.00;;;11.40;99.90;;;;;;5093574;28;20232;-37
2022/06/22 01:45:25;;;;;;;2.10;1.23;;;11.40;99.90;;;;;;5093537;28;20195;-37
2022/06/22 01:47:58;;;;;;;2.77;1.13;;;11.30;99.90;;;;;;5088507;28;20623;-37
2022/06/22 01:50:47;;;;;;;3.33;1.27;;;11.20;99.90;;;;;;5093775;28;20558;-38
2022/06/22 01:53:24;;;;;;;1.57;1.33;;;11.20;99.90;;;;;;5093963;28;20171;-38
2022/06/22 01:56:26;;;;;;;2.37;1.27;;;11.10;99.90;;;;;;5094901;28;20189;-37
2022/06/22 01:59:04;;;;;;;2.60;1.47;;;11.10;99.90;;;;;;5075127;28;20220;-37
2022/06/22 02:01:36;;;;;;;2.57;1.50;;;11.10;99.90;;;;;;5093637;28;20265;-37
2022/06/22 02:04:30;;;;;;;6.37;1.60;;;11.10;99.90;;;;;;5096692;28;20206;-39
2022/06/22 02:10:26;;;;;;;3.53;1.30;;;11.10;99.90;;;;;;5097226;28;20720;-38
2022/06/22 02:13:13;;;;;;;2.77;1.50;;;11.00;99.90;;;;;;5097578;28;20194;-38
2022/06/22 02:15:39;;;;;;;1.70;1.30;;;11.00;99.90;;;;;;5097474;28;20171;-38
2022/06/22 02:18:29;;;;;;;2.30;1.43;;;11.00;99.90;;;;;;5097138;28;20267;-39
2022/06/22 02:20:55;;;;;;;1.93;1.50;;;10.90;99.90;;;;;;5046155;28;20201;-37
2022/06/22 02:23:39;;;;;;;2.63;1.70;;;10.80;99.90;;;;;;5097211;28;20637;-39
2022/06/22 02:26:28;;;;;;;2.67;1.60;;;10.80;99.90;;;;;;5097784;28;20179;-38
2022/06/22 02:28:55;;;;;;;2.67;1.83;;;10.80;99.90;;;;;;5098002;28;20597;-37
2022/06/22 02:31:21;;;;;;;2.67;1.43;;;10.70;99.90;;;;;;5099386;28;20189;-39
2022/06/22 02:33:52;;;;;;;1.83;1.20;;;10.70;99.90;;;;;;5106159;28;20181;-39
2022/06/22 02:36:18;;;;;;;1.90;1.47;;;10.70;99.90;;;;;;5112711;28;20174;-41
2022/06/22 02:38:48;;;;;;;1.67;1.40;;;10.70;99.90;;;;;;5100873;28;20224;-39
2022/06/22 02:46:45;;;;;;;1.90;1.50;;;10.40;99.90;;;;;;5097097;28;20178;-37
2022/06/22 02:49:33;;;;;;;4.27;1.90;;;10.40;99.90;;;;;;5096985;28;20281;-37
2022/06/22 02:51:59;;;;;;;3.63;1.90;;;10.40;99.90;;;;;;5096920;28;20186;-36
2022/06/22 02:54:32;;;;;;;1.67;1.50;;;10.30;99.90;;;;;;5097018;28;20180;-40
2022/06/22 02:57:09;;;;;;;3.23;2.03;;;10.30;99.90;;;;;;5096573;28;20535;-37
2022/06/22 02:59:34;;;;;;;2.73;1.97;;;10.30;99.90;;;;;;5096061;28;20253;-37
2022/06/22 03:02:01;;;;;;;4.57;1.80;;;10.30;99.90;;;;;;5096780;28;20235;-39
2022/06/22 03:04:27;;;;;;;2.43;2.10;;;10.20;99.90;;;;;;5096323;28;20317;-37
2022/06/22 03:06:54;;;;;;;2.70;1.73;;;10.20;99.90;;;;;;5096225;28;20173;-37
2022/06/22 03:09:20;;;;;;;2.43;1.90;;;10.20;99.90;;;;;;5096315;28;20194;-37
2022/06/22 03:11:51;;;;;;;1.93;1.50;;;10.10;99.90;;;;;;5096386;28;20664;-38
2022/06/22 03:14:29;;;;;;;1.57;1.40;;;10.20;99.90;;;;;;5095291;28;20225;-38
2022/06/22 03:17:01;;;;;;;1.67;1.40;;;10.10;99.90;;;;;;5077982;28;20219;-38
2022/06/22 03:19:39;;;;;;;4.13;1.80;;;10.10;99.90;;;;;;5077586;28;20204;-38
2022/06/22 03:22:05;;;;;;;3.60;1.70;;;10.10;99.90;;;;;;5095936;28;20177;-37
2022/06/22 03:24:49;;;;;;;2.23;1.73;;;10.00;99.90;;;;;;5077665;28;20624;-38
2022/06/22 03:27:19;;;;;;;3.97;1.97;;;10.10;99.90;;;;;;5095647;28;20168;-39
2022/06/22 03:29:59;;;;;;;2.33;1.73;;;10.00;99.90;;;;;;5096186;28;20200;-38
2022/06/22 03:32:48;;;;;;;2.97;1.80;;;10.10;99.90;;;;;;5096142;28;20601;-38
2022/06/22 03:35:42;;;;;;;3.27;1.80;;;10.00;99.90;;;;;;5096007;28;20614;-38
2022/06/22 03:38:12;;;;;;;8.80;2.00;;;10.00;99.90;;;;;;5095467;28;20680;-38
2022/06/22 03:40:49;;;;;;;5.40;2.00;;;10.00;99.90;;;;;;5095357;28;20175;-38
2022/06/22 03:43:24;;;;;;;3.13;1.80;;;10.10;99.90;;;;;;5095608;28;20174;-38
2022/06/22 03:46:04;;;;;;;3.37;1.80;;;10.10;99.90;;;;;;5095732;28;20176;-39
2022/06/22 03:48:37;;;;;;;2.10;1.73;;;10.10;99.90;;;;;;5095844;28;20591;-37
2022/06/22 03:51:23;;;;;;;3.97;1.80;;;10.00;99.90;;;;;;5095635;28;20192;-36
2022/06/22 03:54:02;;;;;;;3.23;1.90;;;10.00;99.90;;;;;;5095581;28;20185;-36
2022/06/22 03:56:33;;;;;;;2.53;1.90;;;10.10;99.90;;;;;;5095661;28;20228;-38
2022/06/22 03:59:01;;;;;;;3.07;2.20;;;10.10;99.90;;;;;;5095081;28;20227;-37
2022/06/22 04:01:28;;;;;;;6.07;2.27;;;10.10;99.90;;;;;;5095479;28;20259;-37
2022/06/22 04:03:55;;;;;;;4.30;2.27;;;10.10;99.90;;;;;;5095393;28;20199;-37
2022/06/22 04:06:31;;;;;;;3.97;2.40;;;10.10;99.90;;;;;;5094857;28;20179;-37
2022/06/22 04:08:58;;;;;;;6.43;2.03;;;10.20;99.90;;;;;;5095158;28;20223;-38
2022/06/22 04:11:31;;;;;;;4.20;2.47;;;10.20;99.90;;;;;;5094944;28;20707;-37
2022/06/22 04:14:11;;;;;;;3.37;1.80;;;10.30;99.90;;;;;;5094875;28;20177;-38
2022/06/22 04:16:45;;;;;;;4.23;2.20;;;10.40;99.90;;;;;;5095367;28;20200;-38
2022/06/22 04:19:26;;;;;;;4.20;2.33;;;10.40;99.90;;;;;;5094885;28;20742;-37
2022/06/22 04:21:58;;;;;;;4.43;2.33;;;10.50;99.90;;;;;;5094660;28;20293;-37
2022/06/22 04:24:32;;;;;;;4.07;2.47;;;10.50;99.90;;;;;;5094821;28;20228;-37
2022/06/22 04:27:11;;;;;;;4.90;2.30;;;10.50;99.90;;;;;;5093683;28;20620;-36
2022/06/22 04:29:48;;;;;;;3.40;2.40;;;10.60;99.90;;;;;;5094519;28;20198;-37
2022/06/22 04:32:27;;;;;;;4.50;2.50;;;10.60;99.90;;;;;;5094561;28;20637;-38
2022/06/22 04:35:03;;;;;;;2.97;2.70;;;10.60;99.90;;;;;;5094644;28;20521;-36
2022/06/22 04:37:40;;;;;;;5.00;2.40;;;10.70;99.90;;;;;;5076738;28;20247;-39
2022/06/22 04:40:23;;;;;;;3.17;2.70;;;10.70;99.90;;;;;;5094404;28;20202;-37
2022/06/22 04:42:54;;;;;;;5.87;2.53;;;10.80;99.90;;;;;;5095196;28;20200;-38
2022/06/22 04:45:35;;;;;;;5.40;2.80;;;10.80;99.90;;;;;;5097512;28;20204;-37
2022/06/22 04:48:08;;;;;;;4.60;3.00;;;10.90;99.90;;;;;;5094361;28;20178;-37
2022/06/22 04:50:37;;;;;;;6.30;2.60;;;10.90;99.90;;;;;;5094788;28;20165;-39
2022/06/22 04:53:04;;;;;;;4.10;2.73;;;11.00;99.90;;;;;;5076476;28;20182;-38
2022/06/22 04:55:38;;;;;;;4.43;2.97;;;11.10;99.90;;;;;;5075965;28;20198;-36
2022/06/22 04:58:11;;;;;;;7.57;2.60;;;11.20;99.90;;;;;;5094408;28;20191;-37
2022/06/22 05:00:36;;;;;;;7.20;2.93;;;11.30;99.90;;;;;;5094229;28;20183;-37
2022/06/22 05:03:12;;;;;;;8.53;3.20;;;11.40;99.90;;;;;;5094103;28;20176;-38
2022/06/22 05:05:38;;;;;;;6.53;3.83;;;11.50;99.90;;;;;;5094740;28;20172;-38
2022/06/22 05:08:10;;;;;;;7.73;4.17;;;11.60;99.90;;;;;;5093669;28;20511;-38
2022/06/22 05:10:57;;;;;;;16.87;5.27;;;11.70;99.90;;;;;;5094323;28;20215;-38
2022/06/22 05:13:46;;;;;;;6.90;4.33;;;11.80;99.90;;;;;;5093939;28;20173;-38
2022/06/22 05:16:20;;;;;;;8.40;4.37;;;12.00;99.90;;;;;;5094104;28;20175;-38
2022/06/22 05:18:48;;;;;;;8.77;4.40;;;12.30;99.90;;;;;;5094498;28;20213;-36
2022/06/22 05:21:35;;;;;;;6.83;4.43;;;12.40;99.90;;;;;;5094277;28;20182;-38
2022/06/22 05:24:07;;;;;;;6.90;4.40;;;12.60;99.90;;;;;;5094083;28;20230;-37
2022/06/22 05:26:34;;;;;;;8.60;4.77;;;12.70;99.90;;;;;;5094028;28;20517;-37
2022/06/22 05:29:27;;;;;;;10.03;4.47;;;12.80;99.90;;;;;;5093937;28;20281;-41
2022/06/22 05:31:58;;;;;;;8.57;4.27;;;13.00;99.90;;;;;;5094657;28;20164;-36
2022/06/22 05:34:31;;;;;;;11.10;4.87;;;13.10;99.90;;;;;;5093598;28;20168;-39
2022/06/22 05:37:03;;;;;;;7.80;4.70;;;13.20;99.90;;;;;;5093535;28;20165;-39
2022/06/22 05:39:32;;;;;;;9.90;4.80;;;13.30;99.90;;;;;;5098348;28;20228;-38
2022/06/22 05:41:58;;;;;;;7.03;4.70;;;13.50;99.90;;;;;;5106173;28;20186;-39
2022/06/22 05:44:24;;;;;;;9.37;4.70;;;13.60;99.90;;;;;;5099568;28;20211;-38
2022/06/22 05:46:56;;;;;;;5.73;4.63;;;13.80;99.90;;;;;;5094494;28;20177;-40
2022/06/22 05:49:44;;;;;;;13.00;5.20;;;13.90;99.90;;;;;;5093700;28;20314;-37
2022/06/22 05:52:32;;;;;;;7.00;5.43;;;14.00;99.90;;;;;;5093918;28;20166;-37
2022/06/22 05:55:16;;;;;;;8.47;5.20;;;14.20;99.90;;;;;;5093574;28;20179;-38
2022/06/22 05:57:56;;;;;;;9.67;4.93;;;14.30;99.90;;;;;;5076006;28;20181;-38
2022/06/22 06:00:47;;;;;;;9.37;4.90;;;14.40;99.90;;;;;;5093749;28;20298;-39
2022/06/22 06:03:25;;;;;;;8.70;5.03;;;14.60;99.90;;;;;;5093577;28;20174;-38
2022/06/22 06:05:55;;;;;;;7.33;5.10;;;14.80;99.90;;;;;;5093685;28;20224;-39
2022/06/22 06:08:21;;;;;;;10.37;4.97;;;15.00;99.90;;;;;;5093276;28;20199;-37
2022/06/22 06:10:47;;;;;;;11.00;5.47;;;15.20;99.90;;;;;;5093448;28;20227;-43
2022/06/22 06:13:36;;;;;;;7.97;4.90;;;15.30;99.90;;;;;;5093594;28;20193;-42
2022/06/22 06:16:07;;;;;;;6.10;4.77;;;15.50;99.90;;;;;;5093223;28;20182;-41
2022/06/22 06:18:38;;;;;;;8.27;4.80;;;15.60;99.90;;;;;;5093516;28;20259;-42
2022/06/22 06:21:10;;;;;;;9.90;4.90;;;15.70;99.90;;;;;;5093456;28;20510;-42
2022/06/22 06:23:42;;;;;;;8.40;4.63;;;15.90;99.90;;;;;;5093492;28;20198;-44
2022/06/22 06:29:15;;;;;;;6.90;4.80;;;16.20;99.90;;;;;;5093233;28;20312;-41
2022/06/22 06:31:57;;;;;;;8.40;4.33;;;16.40;99.90;;;;;;5092911;28;20159;-42
2022/06/22 06:34:33;;;;;;;8.90;4.93;;;16.60;99.90;;;;;;5093273;28;20263;-42
2022/06/22 06:37:30;;;;;;;7.33;4.37;;;16.70;99.90;;;;;;5093179;28;20179;-41
2022/06/22 06:39:57;;;;;;;7.60;3.83;;;16.90;99.90;;;;;;5079380;28;20219;-41
2022/06/22 06:42:40;;;;;;;7.37;4.30;;;17.20;99.90;;;;;;5074746;28;20185;-44
2022/06/22 06:45:14;;;;;;;5.27;3.70;;;17.30;99.90;;;;;;5093043;28;20666;-42
2022/06/22 06:47:45;;;;;;;7.33;3.90;;;17.50;99.90;;;;;;5093347;28;20251;-43
2022/06/22 06:50:20;;;;;;;7.40;4.10;;;17.60;99.90;;;;;;5094579;28;20224;-41
2022/06/22 06:53:02;;;;;;;7.77;4.03;;;17.80;99.90;;;;;;5096501;28;20196;-41
2022/06/22 06:55:49;;;;;;;6.87;3.37;;;17.80;99.90;;;;;;5096391;28;20254;-42
2022/06/22 06:58:35;;;;;;;7.73;3.87;;;18.00;99.90;;;;;;5096134;28;20194;-42
2022/06/22 07:01:02;;;;;;;6.70;4.10;;;18.20;99.90;;;;;;5096880;28;20181;-41
2022/06/22 07:03:34;;;;;;;11.57;4.50;;;18.30;99.90;;;;;;5096326;28;20203;-42
2022/06/22 07:06:02;;;;;;;7.47;3.73;;;18.40;99.90;;;;;;5096320;28;20196;-42
2022/06/22 07:08:43;;;;;;;3.90;3.23;;;18.50;99.90;;;;;;5096445;28;20572;-42
2022/06/22 07:11:31;;;;;;;9.03;3.23;;;18.60;99.90;;;;;;5096024;28;20167;-43
2022/06/22 07:14:12;;;;;;;6.50;3.63;;;18.80;99.90;;;;;;5095987;28;20204;-43
2022/06/22 07:16:39;;;;;;;6.57;3.30;;;18.90;99.90;;;;;;5096075;28;20634;-41
2022/06/22 07:19:16;;;;;;;5.23;2.93;;;19.00;99.90;;;;;;5096302;28;20190;-43
2022/06/22 07:22:09;;;;;;;7.37;2.83;;;19.00;99.90;;;;;;5096073;28;20577;-43
2022/06/22 07:24:40;;;;;;;8.93;3.20;;;19.30;99.90;;;;;;5095738;28;20203;-44
2022/06/22 07:27:15;;;;;;;5.83;3.00;;;19.50;99.90;;;;;;5095949;28;20194;-43
2022/06/22 07:30:01;;;;;;;7.80;3.30;;;19.70;99.90;;;;;;5095870;28;20202;-44
2022/06/22 07:32:48;;;;;;;6.50;3.27;;;20.00;99.90;;;;;;5095927;28;20190;-42
2022/06/22 07:35:38;;;;;;;6.43;3.07;;;20.20;99.90;;;;;;5078192;28;20171;-43
2022/06/22 07:38:07;;;;;;;7.40;3.23;;;20.50;99.90;;;;;;5095701;28;20254;-41
2022/06/22 07:40:34;;;;;;;7.90;2.70;;;20.90;99.90;;;;;;5095506;28;20216;-44
2022/06/22 07:43:00;;;;;;;7.10;2.90;;;21.20;99.90;;;;;;5095303;28;20214;-44
2022/06/22 07:45:28;;;;;;;3.80;2.57;;;21.40;99.90;;;;;;5095128;28;20252;-43
2022/06/22 07:48:02;;;;;;;6.20;2.77;;;21.40;99.90;;;;;;5095415;28;20178;-43
2022/06/22 07:50:32;;;;;;;9.27;3.17;;;21.60;99.90;;;;;;5095651;28;20155;-44
2022/06/22 07:53:13;;;;;;;9.23;3.20;;;21.60;99.90;;;;;;5095257;28;20542;-42
2022/06/22 07:56:19;;;;;;;7.93;2.77;;;21.50;99.90;;;;;;5095544;28;20167;-42
2022/06/22 07:58:56;;;;;;;11.57;3.20;;;21.40;99.90;;;;;;5005115;28;20230;-42
2022/06/22 08:01:29;;;;;;;12.17;2.73;;;21.70;99.90;;;;;;5094846;28;20182;-44
2022/06/22 08:04:03;;;;;;;8.27;2.70;;;21.80;99.90;;;;;;5094890;28;20282;-43
2022/06/22 08:06:44;;;;;;;5.77;2.80;;;22.00;99.90;;;;;;5095111;28;20197;-45
2022/06/22 08:10:21;;;;;;;12.00;2.80;;;22.20;99.90;;;;;;5095381;28;20203;-44
2022/06/22 08:13:04;;;;;;;7.17;3.27;;;22.40;99.90;;;;;;4938597;28;20227;-44
2022/06/22 08:15:37;;;;;;;9.80;2.60;;;22.60;99.90;;;;;;5089239;28;20277;-43
2022/06/22 08:18:03;;;;;;;7.40;3.07;;;22.40;99.90;;;;;;5094939;28;20163;-43
2022/06/22 08:20:31;;;;;;;8.30;2.60;;;22.50;99.90;;;;;;5094999;28;20178;-45
2022/06/22 08:23:02;;;;;;;9.27;2.43;;;22.50;99.90;;;;;;5094512;28;20175;-43
2022/06/22 08:25:28;;;;;;;9.40;2.43;;;22.70;99.90;;;;;;5094565;28;20220;-43
2022/06/22 08:27:54;;;;;;;8.03;2.57;;;22.90;99.90;;;;;;5094868;28;20563;-45
2022/06/22 08:30:20;;;;;;;4.40;1.83;;;23.10;99.90;;;;;;5076263;28;20195;-45
2022/06/22 08:32:50;;;;;;;6.13;2.30;;;23.10;99.90;;;;;;5094368;28;20182;-43
2022/06/22 08:35:20;;;;;;;6.30;2.13;;;23.10;99.90;;;;;;5094389;28;20183;-44
2022/06/22 08:37:49;;;;;;;3.33;1.90;;;22.90;99.90;;;;;;5094651;28;20210;-45
2022/06/22 08:40:37;;;;;;;9.47;2.23;;;22.90;99.90;;;;;;5094526;28;20210;-43
2022/06/22 08:43:29;;;;;;;4.87;2.07;;;23.00;99.90;;;;;;5047636;28;20563;-44
2022/06/22 08:46:07;;;;;;;7.87;2.30;;;23.10;99.90;;;;;;5094357;28;20187;-44
2022/06/22 08:48:56;;;;;;;4.13;2.30;;;23.30;99.90;;;;;;5094099;28;20198;-45
2022/06/22 08:51:58;;;;;;;7.07;3.20;;;23.40;99.90;;;;;;5094008;28;20167;-44
2022/06/22 08:54:37;;;;;;;7.83;3.03;;;23.30;99.90;;;;;;5094432;28;20540;-44
2022/06/22 08:57:26;;;;;;;4.63;2.13;;;23.30;99.90;;;;;;5094312;28;20603;-46
2022/06/22 09:00:16;;;;;;;11.63;2.40;;;23.40;99.90;;;;;;5093867;28;20217;-44
2022/06/22 09:03:16;;;;;;;5.43;2.00;;;23.40;99.90;;;;;;5094149;28;20170;-44
2022/06/22 09:05:58;;;;;;;9.23;2.03;;;23.40;99.90;;;;;;5075859;28;20280;-44
2022/06/22 09:08:38;;;;;;;5.37;2.20;;;23.40;99.90;;;;;;5094049;28;20275;-43
2022/06/22 09:11:19;;;;;;;6.83;2.20;;;23.60;99.90;;;;;;5094069;28;20598;-44
2022/06/22 09:14:07;;;;;;;4.10;2.10;;;23.60;99.90;;;;;;5093374;28;20162;-46
2022/06/22 09:16:57;;;;;;;8.73;3.00;;;23.70;99.90;;;;;;5094165;28;20159;-43
2022/06/22 09:19:42;;;;;;;3.57;2.20;;;23.60;99.90;;;;;;5093975;28;20183;-44
2022/06/22 09:22:41;;;;;;;5.63;1.93;;;23.60;99.90;;;;;;5093746;28;20220;-45
2022/06/22 09:25:27;;;;;;;4.93;1.87;;;23.60;99.90;;;;;;5094627;28;20260;-46
2022/06/22 09:28:24;;;;;;;4.30;1.93;;;23.80;99.90;;;;;;5093820;28;20174;-46
2022/06/22 09:31:00;;;;;;;6.63;2.00;;;23.90;99.90;;;;;;5096915;28;20159;-44
2022/06/22 09:33:54;;;;;;;10.23;2.10;;;24.00;99.90;;;;;;5098111;28;20155;-44
2022/06/22 09:36:41;;;;;;;6.40;2.13;;;24.20;99.90;;;;;;5097944;28;20159;-45
2022/06/22 09:39:38;;;;;;;6.90;2.40;;;24.20;99.90;;;;;;5093756;28;20191;-46
2022/06/22 09:42:41;;;;;;;5.37;2.47;;;24.30;99.90;;;;;;5094723;28;20155;-45
2022/06/22 09:45:38;;;;;;;6.30;2.00;;;24.40;99.90;;;;;;5094072;28;20662;-45
2022/06/22 09:48:40;;;;;;;4.07;2.07;;;24.30;99.90;;;;;;5093499;28;20181;-44
2022/06/22 09:51:35;;;;;;;5.03;2.00;;;24.40;99.90;;;;;;5093515;28;20159;-44
2022/06/22 09:57:38;;;;;;;3.10;1.60;;;24.50;99.90;;;;;;5093503;28;20166;-45
2022/06/22 10:00:24;;;;;;;4.23;1.80;;;24.60;99.90;;;;;;5094225;28;20301;-45
2022/06/22 10:03:29;;;;;;;5.60;1.97;;;24.70;99.90;;;;;;5093763;28;20170;-45
2022/06/22 10:06:03;;;;;;;7.73;2.03;;;24.70;99.90;;;;;;5093840;28;20167;-42
2022/06/22 10:08:58;;;;;;;6.70;1.97;;;24.80;99.90;;;;;;5093502;28;20232;-41
2022/06/22 10:11:46;;;;;;;4.57;2.00;;;25.00;99.90;;;;;;5076121;28;20165;-40
2022/06/22 10:14:26;;;;;;;4.10;2.10;;;25.00;99.90;;;;;;5093756;28;20588;-40
2022/06/22 10:16:57;;;;;;;6.13;1.77;;;25.10;99.90;;;;;;5093581;28;20175;-42
2022/06/22 10:19:53;;;;;;;11.17;2.63;;;25.20;99.90;;;;;;5093289;28;20570;-40
2022/06/22 10:22:43;;;;;;;5.37;2.97;;;25.20;99.90;;;;;;5093356;28;20685;-40
2022/06/22 10:25:45;;;;;;;6.83;2.30;;;25.30;99.90;;;;;;5096986;28;20199;-42
2022/06/22 10:28:29;;;;;;;5.47;2.05;;;25.20;99.90;;;;;;5097112;28;20181;-42
2022/06/22 10:31:19;;;;;;;4.67;1.83;;;25.20;99.90;;;;;;5097243;28;20178;-42
2022/06/22 10:33:57;;;;;;;12.50;2.42;;;25.40;99.90;;;;;;5097198;28;20619;-41
2022/06/22 10:36:39;;;;;;;3.03;1.50;;;25.60;99.90;;;;;;5097070;28;20167;-42
2022/06/22 10:39:23;;;;;;;5.82;1.90;;;25.70;99.90;;;;;;5078843;28;20306;-40
2022/06/22 10:45:10;;;;;;;5.07;2.10;;;25.60;99.90;;;;;;5097113;28;20189;-41
2022/06/22 10:48:10;;;;;;;5.07;2.67;;;25.70;99.90;;;;;;5096808;28;20163;-41
2022/06/22 10:51:10;;;;;;;5.43;2.10;;;25.60;99.90;;;;;;5011585;28;20194;-41
2022/06/22 10:53:38;;;;;;;8.50;2.15;;;25.70;99.90;;;;;;5097022;28;20246;-40
2022/06/22 10:56:45;;;;;;;5.80;2.17;;;25.70;99.90;;;;;;5078674;28;20175;-40
2022/06/22 10:59:38;;;;;;;3.97;1.77;;;25.60;99.90;;;;;;5096456;28;20218;-41
2022/06/22 11:02:38;;;;;;;2.33;1.67;;;25.70;99.90;;;;;;5096656;28;20175;-40
2022/06/22 11:05:10;;;;;;;3.53;1.80;;;25.80;99.90;;;;;;5096364;28;20214;-43
2022/06/22 11:07:38;;;;;;;3.25;1.92;;;26.00;99.90;;;;;;5096020;28;20238;-42
2022/06/22 11:10:23;;;;;;;6.97;1.80;;;26.10;99.90;;;;;;5096293;28;20564;-41
2022/06/22 11:13:30;;;;;;;5.20;2.00;;;26.30;99.90;;;;;;5096886;28;20704;-41
2022/06/22 11:16:12;;;;;;;5.72;2.10;;;26.30;99.90;;;;;;4994813;28;20295;-39
2022/06/22 11:19:02;;;;;;;3.08;1.75;;;26.40;99.90;;;;;;5086763;28;20674;-42
2022/06/22 11:22:04;;;;;;;4.53;2.15;;;26.50;99.90;;;;;;5095908;28;20182;-41
2022/06/22 11:25:11;;;;;;;4.45;1.88;;;26.50;99.90;;;;;;5096254;28;20195;-41
2022/06/22 11:30:55;;;;;;;5.15;2.50;;;26.70;99.20;;;;;;5096573;28;20171;-41
2022/06/22 11:33:39;;;;;;;2.72;2.15;;;26.70;99.80;;;;;;5098794;22;20227;-41
2022/06/22 11:36:22;;;;;;;5.57;1.90;;;26.80;99.90;;;;;;5076589;28;20182;-41
2022/06/22 11:39:18;;;;;;;4.38;2.10;;;26.90;99.40;;;;;;5103830;28;20224;-43
2022/06/22 11:42:23;;;;;;;4.68;2.17;;;26.80;99.60;;;;;;5116965;28;20652;-41
2022/06/22 11:47:54;;;;;;;4.38;2.33;;;27.30;98.60;;;;;;5116317;28;20169;-42
2022/06/22 11:50:25;;;;;;;4.10;2.35;;;27.40;99.30;;;;;;5116169;28;20534;-40
2022/06/22 11:53:13;;;;;;;5.45;2.30;;;27.60;98.40;;;;;;5115903;28;20155;-41
2022/06/22 11:55:44;;;;;;;6.32;2.03;;;27.70;97.90;;;;;;5115453;28;20170;-42
2022/06/22 11:58:21;;;;;;;5.82;1.88;;;27.70;96.30;;;;;;5115714;28;20311;-42
2022/06/22 12:01:01;;;;;;;4.60;1.90;;;27.60;96.10;;;;;;5115851;28;20177;-40
2022/06/22 12:03:27;;;;;;;8.82;2.05;;;27.60;98.80;;;;;;5097071;28;20605;-42
2022/06/22 12:06:14;;;;;;;2.40;1.40;;;27.80;96.20;;;;;;5115265;28;20209;-44
2022/06/22 12:09:16;;;;;;;6.90;1.90;;;27.90;99.10;;;;;;5115266;28;20205;-43
2022/06/22 12:12:08;;;;;;;2.80;2.30;;;28.00;95.60;;;;;;5115438;28;20158;-43
2022/06/22 12:15:09;;;;;;;3.33;1.70;;;27.80;96.30;;;;;;5096363;28;20302;-42
2022/06/22 12:18:02;;;;;;;3.38;1.63;;;27.80;98.10;;;;;;5115370;28;20190;-43
2022/06/22 12:20:27;;;;;;;4.15;1.98;;;28.10;97.80;;;;;;5096767;28;20180;-41
2022/06/22 12:23:13;;;;;;;4.97;2.17;;;28.20;95.00;;;;;;5115282;28;20652;-44
2022/06/22 12:25:49;;;;;;;3.55;2.00;;;28.00;96.00;;;;;;5115147;28;20220;-41
2022/06/22 12:28:41;;;;;;;7.43;1.85;;;27.90;96.30;;;;;;5113785;28;20190;-42
2022/06/22 12:31:17;;;;;;;7.10;2.10;;;28.20;99.60;;;;;;5115038;28;20199;-43
2022/06/22 12:33:59;;;;;;;7.43;1.65;;;28.40;95.50;;;;;;5114684;28;20193;-41
2022/06/22 12:36:37;;;;;;;3.95;2.17;;;28.50;95.10;;;;;;5115023;28;20532;-43
2022/06/22 12:39:04;;;;;;;2.17;1.70;;;28.50;93.80;;;;;;5114849;28;20210;-43
2022/06/22 12:41:49;;;;;;;3.10;1.45;;;28.40;94.70;;;;;;5114862;28;20219;-43
2022/06/22 12:44:40;;;;;;;3.47;1.88;;;28.40;95.10;;;;;;5114447;28;20314;-43
2022/06/22 12:47:36;;;;;;;4.97;1.95;;;28.50;95.20;;;;;;5113559;28;20154;-43
2022/06/22 12:50:23;;;;;;;2.67;1.58;;;28.60;94.60;;;;;;5114404;28;20198;-42
2022/06/22 12:52:56;;;;;;;9.00;1.80;;;28.50;92.00;;;;;;5114356;28;20596;-44
2022/06/22 12:55:32;;;;;;;2.47;1.50;;;28.40;92.20;;;;;;5096138;28;20618;-44
2022/06/22 12:58:11;;;;;;;1.88;1.50;;;28.30;92.10;;;;;;5113417;28;20253;-43
2022/06/22 13:00:39;;;;;;;2.65;1.55;;;28.50;92.20;;;;;;5114299;28;20245;-42
2022/06/22 13:03:05;;;;;;;4.18;1.52;;;28.50;92.70;;;;;;5114564;28;20178;-43
2022/06/22 13:05:34;;;;;;;2.80;1.50;;;28.40;92.20;;;;;;5095876;28;20209;-42
2022/06/22 13:08:04;;;;;;;3.13;1.60;;;28.50;92.00;;;;;;5114139;28;20554;-42
2022/06/22 13:10:43;;;;;;;12.10;2.15;;;28.40;91.50;;;;;;5095954;28;20223;-42
2022/06/22 13:13:25;;;;;;;5.57;1.73;;;28.30;91.30;;;;;;5115427;28;20168;-42
2022/06/22 13:16:01;;;;;;;6.05;1.52;;;28.10;91.20;;;;;;5114358;28;20166;-41
2022/06/22 13:19:02;;;;;;;5.65;1.60;;;28.10;92.10;;;;;;5114125;28;20778;-44
2022/06/22 13:21:31;;;;;;;3.05;1.30;;;28.20;90.90;;;;;;5114859;28;20174;-42
2022/06/22 13:24:12;;;;;;;4.07;1.85;;;28.20;91.00;;;;;;5114049;28;20197;-43
2022/06/22 13:26:41;;;;;;;2.28;1.70;;;28.20;91.40;;;;;;5114366;28;20162;-41
2022/06/22 13:29:09;;;;;;;2.67;1.40;;;28.30;90.00;;;;;;5114421;28;20626;-43
2022/06/22 13:31:40;;;;;;;6.13;1.80;;;28.10;88.10;;;;;;5114239;28;20200;-43
2022/06/22 13:34:14;;;;;;;3.97;1.50;;;28.10;90.00;;;;;;5113865;28;20322;-42
2022/06/22 13:37:08;;;;;;;3.67;1.38;;;28.20;92.00;;;;;;5095515;28;20170;-42
2022/06/22 13:39:39;;;;;;;3.28;1.40;;;28.50;93.30;;;;;;5113999;28;20208;-42
2022/06/22 13:42:39;;;;;;;4.40;1.52;;;28.80;90.20;;;;;;5114059;28;20198;-43
2022/06/22 13:45:27;;;;;;;2.88;1.35;;;28.70;87.70;;;;;;5114003;28;20282;-43
2022/06/22 13:48:21;;;;;;;3.17;1.35;;;28.70;91.80;;;;;;5113742;28;20256;-44
2022/06/22 13:51:07;;;;;;;3.63;1.52;;;29.00;89.00;;;;;;5114057;28;20162;-42
2022/06/22 13:53:54;;;;;;;6.72;1.30;;;29.30;92.30;;;;;;5095442;28;20170;-43
2022/06/22 13:56:44;;;;;;;2.55;1.30;;;29.60;90.60;;;;;;5113863;28;20181;-41
2022/06/22 13:59:27;;;;;;;3.08;1.33;;;29.70;87.40;;;;;;5115607;28;20191;-41
2022/06/22 14:01:58;;;;;;;2.13;1.45;;;29.70;85.10;;;;;;5118038;28;20247;-43
2022/06/22 14:04:35;;;;;;;7.40;1.40;;;29.70;87.30;;;;;;5099329;28;20208;-43
2022/06/22 14:07:18;;;;;;;3.97;1.60;;;29.70;86.70;;;;;;5117909;28;20173;-44
2022/06/22 14:10:16;;;;;;;5.20;1.48;;;29.80;88.60;;;;;;5099238;28;20226;-43
2022/06/22 14:12:57;;;;;;;4.93;1.40;;;29.80;83.60;;;;;;5117914;28;20185;-42
2022/06/22 14:15:50;;;;;;;2.03;1.33;;;29.50;80.30;;;;;;5118332;28;20253;-41